Time;durP1;ratioP1;P1;durP2;ratioP2;P2;SDS_P1;SDS_P2;PMS_P1;PMS_P2;Temp;Humidity;BMP_temperature;BMP_pressure;BME280_temperature;BME280_humidity;BME280_pressure;Samples;Min_cycle;Max_cycle;Signal;HPM_P1;HPM_P2
2021/12/17 00:05:01;;;;;;;3.67;1.30;;;;;;;;;;5049379;28;20124;-75
2021/12/17 00:07:29;;;;;;;5.57;1.40;;;;;;;;;;5045252;28;20068;-75
2021/12/17 00:09:56;;;;;;;4.35;1.05;;;;;;;;;;5049915;28;20029;-76
2021/12/17 00:12:24;;;;;;;5.85;1.63;;;;;;;;;;5048135;28;20052;-75
2021/12/17 00:14:50;;;;;;;5.28;1.10;;;;;;;;;;5046749;28;20496;-75
2021/12/17 00:17:22;;;;;;;8.18;1.50;;;;;;;;;;5049635;28;20239;-74
2021/12/17 00:50:13;;;;;;;3.10;1.20;;;;;;;;;;5049087;28;20057;-74
2021/12/17 00:52:41;;;;;;;4.85;1.10;;;;;;;;;;5050574;28;20648;-73
2021/12/17 00:55:08;;;;;;;4.75;1.35;;;;;;;;;;5061431;28;20139;-74
2021/12/17 00:57:39;;;;;;;3.60;1.00;;;;;;;;;;5037522;28;21218;-74
2021/12/17 01:00:06;;;;;;;;;;;;;;;;;;5058718;28;20065;-74
2021/12/17 01:02:33;;;;;;;4.55;1.05;;;;;;;;;;5049636;28;20002;-74
2021/12/17 01:05:01;;;;;;;3.90;0.93;;;;;;;;;;5048197;28;20126;-74
2021/12/17 01:07:29;;;;;;;3.75;1.25;;;;;;;;;;5049768;28;20056;-74
2021/12/17 01:09:56;;;;;;;4.90;1.10;;;;;;;;;;5049713;28;20431;-74
2021/12/17 01:12:23;;;;;;;6.65;1.35;;;;;;;;;;5056017;28;20125;-76
2021/12/17 01:14:50;;;;;;;4.28;1.48;;;;;;;;;;5035935;28;20067;-75
2021/12/17 01:17:19;;;;;;;3.67;1.10;;;;;;;;;;5051118;28;20064;-75
2021/12/17 01:25:06;;;;;;;7.13;1.27;;;;;;;;;;5051166;28;20057;-75
2021/12/17 01:35:42;;;;;;;4.38;1.52;;;;;;;;;;5055488;28;20593;-75
2021/12/17 01:41:45;;;;;;;4.65;1.02;;;;;;;;;;5050383;28;20155;-75
2021/12/17 01:44:03;;;;;;;5.10;1.13;;;;;;;;;;5044167;28;20275;-75
2021/12/17 01:46:31;;;;;;;5.32;1.40;;;;;;;;;;5049265;28;20053;-75
2021/12/17 01:59:32;;;;;;;3.35;1.08;;;;;;;;;;5046534;28;20029;-75
2021/12/17 02:02:04;;;;;;;4.90;1.48;;;;;;;;;;5045434;28;20115;-75
2021/12/17 02:04:31;;;;;;;3.60;1.02;;;;;;;;;;5049005;28;20089;-74
2021/12/17 02:06:58;;;;;;;3.75;0.90;;;;;;;;;;5050718;28;20060;-74
2021/12/17 02:31:02;;;;;;;3.22;0.85;;;;;;;;;;5046157;28;20213;-74
2021/12/17 02:33:28;;;;;;;4.32;1.35;;;;;;;;;;5052616;28;20084;-74
2021/12/17 02:35:55;;;;;;;4.43;1.40;;;;;;;;;;5056718;28;20029;-74
2021/12/17 02:38:21;;;;;;;3.97;0.95;;;;;;;;;;5048057;28;20076;-74
2021/12/17 02:46:18;;;;;;;4.25;1.35;;;;;;;;;;5044981;28;20567;-75
2021/12/17 02:48:45;;;;;;;5.78;0.85;;;;;;;;;;5046442;28;20126;-75
2021/12/17 02:51:11;;;;;;;4.10;1.15;;;;;;;;;;5046369;28;20150;-75
2021/12/17 02:53:38;;;;;;;7.13;1.33;;;;;;;;;;5047235;28;20056;-75
2021/12/17 02:56:07;;;;;;;3.58;0.98;;;;;;;;;;5049147;28;20060;-74
2021/12/17 02:58:34;;;;;;;4.78;1.35;;;;;;;;;;5046071;28;20064;-75
2021/12/17 03:01:02;;;;;;;3.40;0.85;;;;;;;;;;5047046;28;20640;-75
2021/12/17 03:03:32;;;;;;;3.92;1.02;;;;;;;;;;5045798;28;20088;-74
2021/12/17 03:05:58;;;;;;;4.57;0.85;;;;;;;;;;5047865;28;20503;-75
2021/12/17 03:08:25;;;;;;;3.90;1.20;;;;;;;;;;5027872;28;20126;-74
2021/12/17 03:10:52;;;;;;;6.43;1.63;;;;;;;;;;5047762;28;20037;-74
2021/12/17 03:13:20;;;;;;;3.67;0.88;;;;;;;;;;5047916;28;20064;-75
2021/12/17 03:16:01;;;;;;;3.63;1.10;;;;;;;;;;5031466;28;20493;-75
2021/12/17 03:23:43;;;;;;;5.10;1.20;;;;;;;;;;5043319;28;21421;-76
2021/12/17 03:26:28;;;;;;;4.97;1.17;;;;;;;;;;5049958;28;20086;-75
2021/12/17 03:28:56;;;;;;;4.15;1.00;;;;;;;;;;5048262;28;20094;-75
2021/12/17 03:31:23;;;;;;;4.50;1.02;;;;;;;;;;5050376;28;20135;-75
2021/12/17 03:33:51;;;;;;;5.25;1.10;;;;;;;;;;5046050;28;20059;-74
2021/12/17 03:36:19;;;;;;;3.45;0.85;;;;;;;;;;5046933;28;20063;-74
2021/12/17 03:38:47;;;;;;;2.60;1.00;;;;;;;;;;5047160;28;20044;-76
2021/12/17 03:41:20;;;;;;;4.85;1.23;;;;;;;;;;5048318;28;20061;-75
2021/12/17 03:43:50;;;;;;;5.50;1.10;;;;;;;;;;5054997;28;20052;-74
2021/12/17 03:46:16;;;;;;;3.22;1.08;;;;;;;;;;5046259;28;20045;-75
2021/12/17 03:48:43;;;;;;;4.20;1.20;;;;;;;;;;5051152;28;20032;-75
2021/12/17 03:51:14;;;;;;;4.90;0.90;;;;;;;;;;5053351;28;20053;-75
2021/12/17 03:53:42;;;;;;;6.37;1.70;;;;;;;;;;5047959;28;20033;-75
2021/12/17 03:56:09;;;;;;;4.70;1.30;;;;;;;;;;5033152;28;20110;-75
2021/12/17 03:58:35;;;;;;;5.07;1.33;;;;;;;;;;5048521;28;20041;-74
2021/12/17 04:01:02;;;;;;;4.40;1.20;;;;;;;;;;5046562;28;20061;-75
2021/12/17 04:03:28;;;;;;;4.57;1.15;;;;;;;;;;5047491;28;20111;-76
2021/12/17 04:05:54;;;;;;;4.00;1.05;;;;;;;;;;5047382;28;20053;-74
2021/12/17 04:08:21;;;;;;;6.25;1.45;;;;;;;;;;5049399;28;20064;-74
2021/12/17 04:10:50;;;;;;;2.65;0.80;;;;;;;;;;5053332;28;20523;-75
2021/12/17 04:16:02;;;;;;;5.30;1.08;;;;;;;;;;5047165;28;20065;-77
2021/12/17 04:18:29;;;;;;;3.30;0.93;;;;;;;;;;5043532;28;20437;-77
2021/12/17 04:20:55;;;;;;;4.40;0.90;;;;;;;;;;5049238;28;20071;-77
2021/12/17 04:23:22;;;;;;;3.97;1.10;;;;;;;;;;5046857;28;20060;-77
2021/12/17 04:25:50;;;;;;;4.22;0.88;;;;;;;;;;5051288;28;20080;-77
2021/12/17 04:28:16;;;;;;;5.75;1.27;;;;;;;;;;5049612;28;20061;-78
2021/12/17 04:30:44;;;;;;;5.38;1.05;;;;;;;;;;5047533;28;20128;-77
2021/12/17 04:33:10;;;;;;;5.15;1.15;;;;;;;;;;5047949;28;20131;-77
2021/12/17 04:35:37;;;;;;;6.80;1.45;;;;;;;;;;5049416;28;20563;-78
2021/12/17 04:38:06;;;;;;;3.97;1.10;;;;;;;;;;5029822;28;20091;-77
2021/12/17 04:40:33;;;;;;;4.05;0.82;;;;;;;;;;5044933;28;20619;-77
2021/12/17 04:43:12;;;;;;;4.22;0.98;;;;;;;;;;5048551;28;20087;-77
2021/12/17 04:45:45;;;;;;;4.57;1.30;;;;;;;;;;5046883;28;21504;-78
2021/12/17 04:59:12;;;;;;;3.38;0.90;;;;;;;;;;5046331;28;20087;-77
2021/12/17 05:01:39;;;;;;;2.28;0.73;;;;;;;;;;5049047;28;20559;-77
2021/12/17 05:04:05;;;;;;;4.05;1.23;;;;;;;;;;5048329;28;20453;-76
2021/12/17 05:06:32;;;;;;;4.28;0.93;;;;;;;;;;5047837;28;20060;-77
2021/12/17 05:09:07;;;;;;;3.60;0.80;;;;;;;;;;5047883;28;20104;-77
2021/12/17 05:18:14;;;;;;;3.45;1.05;;;;;;;;;;5048299;28;20056;-78
2021/12/17 05:19:53;;;;;;;2.92;0.85;;;;;;;;;;5029219;28;20079;-78
2021/12/17 05:22:20;;;;;;;3.72;0.90;;;;;;;;;;5045308;28;20069;-78
2021/12/17 05:24:47;;;;;;;4.78;1.42;;;;;;;;;;5048558;28;20072;-80
2021/12/17 05:27:13;;;;;;;3.28;1.20;;;;;;;;;;5047441;28;20063;-78
2021/12/17 05:29:40;;;;;;;6.82;1.23;;;;;;;;;;5047880;28;20061;-79
2021/12/17 05:32:06;;;;;;;3.63;0.93;;;;;;;;;;5046585;28;20056;-79
2021/12/17 05:34:33;;;;;;;5.72;1.60;;;;;;;;;;5043217;28;20615;-79
2021/12/17 05:36:59;;;;;;;4.65;0.98;;;;;;;;;;5030209;28;20444;-78
2021/12/17 05:39:25;;;;;;;6.80;1.77;;;;;;;;;;5020586;28;20057;-78
2021/12/17 05:41:53;;;;;;;2.58;0.93;;;;;;;;;;5027280;28;20049;-78
2021/12/17 05:44:21;;;;;;;5.40;1.15;;;;;;;;;;5023593;28;20080;-78
2021/12/17 05:46:50;;;;;;;3.35;1.08;;;;;;;;;;5009210;28;20067;-79
2021/12/17 05:49:18;;;;;;;3.35;0.80;;;;;;;;;;5023984;28;20060;-78
2021/12/17 05:51:44;;;;;;;3.97;0.80;;;;;;;;;;5030324;28;20057;-78
2021/12/17 05:54:11;;;;;;;2.60;1.00;;;;;;;;;;5011056;28;20073;-78
2021/12/17 05:56:38;;;;;;;6.47;1.02;;;;;;;;;;5010264;28;20112;-78
2021/12/17 05:59:05;;;;;;;3.13;0.90;;;;;;;;;;5028939;28;20065;-78
2021/12/17 06:01:32;;;;;;;4.65;1.13;;;;;;;;;;5028813;28;20485;-77
2021/12/17 06:03:58;;;;;;;4.13;1.73;;;;;;;;;;5028019;28;20438;-78
2021/12/17 06:06:32;;;;;;;2.38;1.00;;;;;;;;;;5028465;28;20134;-78
2021/12/17 06:09:03;;;;;;;3.33;0.88;;;;;;;;;;5030657;28;20654;-77
2021/12/17 06:11:30;;;;;;;4.78;1.10;;;;;;;;;;5029078;28;20045;-78
2021/12/17 06:13:56;;;;;;;4.00;0.98;;;;;;;;;;5029056;28;20053;-78
2021/12/17 06:16:23;;;;;;;4.85;1.10;;;;;;;;;;5011635;28;20069;-77
2021/12/17 06:18:49;;;;;;;5.20;1.27;;;;;;;;;;5031260;28;20141;-78
2021/12/17 06:21:17;;;;;;;8.13;1.30;;;;;;;;;;5029700;28;20037;-78
2021/12/17 06:23:43;;;;;;;3.50;1.25;;;;;;;;;;5031036;28;20057;-78
2021/12/17 06:26:09;;;;;;;5.47;1.30;;;;;;;;;;5029373;28;20061;-77
2021/12/17 06:28:36;;;;;;;6.20;1.48;;;;;;;;;;5028686;28;20057;-77
2021/12/17 06:31:02;;;;;;;3.88;1.27;;;;;;;;;;5027318;28;20135;-78
2021/12/17 06:33:29;;;;;;;5.05;1.30;;;;;;;;;;5034963;28;20068;-77
2021/12/17 06:35:55;;;;;;;5.53;1.10;;;;;;;;;;5037636;28;20092;-77
2021/12/17 06:38:22;;;;;;;5.80;1.50;;;;;;;;;;5043430;28;20461;-79
2021/12/17 06:40:48;;;;;;;4.00;1.00;;;;;;;;;;5049789;28;20453;-77
2021/12/17 06:43:17;;;;;;;7.93;1.35;;;;;;;;;;5049359;28;20056;-78
2021/12/17 06:48:20;;;;;;;4.60;1.05;;;;;;;;;;5050071;28;20048;-78
2021/12/17 07:07:10;;;;;;;4.28;1.02;;;;;;;;;;5047390;28;20226;-78
2021/12/17 07:18:39;;;;;;;3.92;1.27;;;;;;;;;;5059899;28;20209;-78
2021/12/17 07:21:55;;;;;;;3.75;0.80;;;;;;;;;;5063277;28;20033;-78
2021/12/17 07:34:10;;;;;;;5.75;1.35;;;;;;;;;;5077886;28;20059;-78
2021/12/17 07:36:55;;;;;;;4.25;0.90;;;;;;;;;;5066960;28;20051;-77
2021/12/17 07:39:22;;;;;;;4.97;1.20;;;;;;;;;;5065914;28;20076;-77
2021/12/17 07:41:48;;;;;;;3.67;1.10;;;;;;;;;;5050927;28;20033;-78
2021/12/17 07:44:15;;;;;;;5.43;1.33;;;;;;;;;;5048860;28;20037;-77
2021/12/17 07:46:41;;;;;;;4.07;1.00;;;;;;;;;;5056881;28;20090;-78
2021/12/17 07:49:07;;;;;;;3.63;0.88;;;;;;;;;;5053800;28;20033;-77
2021/12/17 07:51:34;;;;;;;4.95;1.67;;;;;;;;;;5049569;28;20049;-78
2021/12/17 07:54:00;;;;;;;4.82;1.00;;;;;;;;;;5050804;28;20025;-76
2021/12/17 07:56:30;;;;;;;3.15;1.02;;;;;;;;;;5045033;28;20049;-78
2021/12/17 07:58:57;;;;;;;3.53;1.33;;;;;;;;;;5055785;28;20079;-77
2021/12/17 08:01:23;;;;;;;3.20;1.42;;;;;;;;;;5046668;28;20053;-78
2021/12/17 08:03:50;;;;;;;4.43;1.10;;;;;;;;;;5047495;28;20040;-79
2021/12/17 08:06:16;;;;;;;2.75;0.95;;;;;;;;;;5047951;28;20566;-78
2021/12/17 08:08:42;;;;;;;2.50;1.10;;;;;;;;;;5051412;28;20067;-78
2021/12/17 08:11:09;;;;;;;3.35;1.17;;;;;;;;;;5049300;28;20667;-77
2021/12/17 08:13:36;;;;;;;3.35;1.00;;;;;;;;;;5029858;28;20053;-77
2021/12/17 08:18:51;;;;;;;2.65;0.75;;;;;;;;;;5045159;28;20620;-77
2021/12/17 08:31:58;;;;;;;2.92;1.00;;;;;;;;;;5030322;28;20075;-77
2021/12/17 08:34:24;;;;;;;3.33;0.90;;;;;;;;;;5035697;28;20075;-78
2021/12/17 08:36:50;;;;;;;2.72;0.95;;;;;;;;;;5047890;28;20067;-77
2021/12/17 08:39:17;;;;;;;2.65;0.95;;;;;;;;;;5046702;28;20065;-76
2021/12/17 08:41:44;;;;;;;4.07;1.25;;;;;;;;;;5053432;28;20060;-79
2021/12/17 08:44:11;;;;;;;3.55;0.90;;;;;;;;;;5046613;28;20049;-77
2021/12/17 08:46:37;;;;;;;3.85;0.95;;;;;;;;;;5047341;28;20057;-78
2021/12/17 08:49:05;;;;;;;5.60;1.20;;;;;;;;;;5052127;28;20056;-78
2021/12/17 08:51:32;;;;;;;3.58;1.10;;;;;;;;;;5052588;28;20059;-79
2021/12/17 08:53:58;;;;;;;5.00;1.10;;;;;;;;;;5049806;28;20044;-78
2021/12/17 08:56:28;;;;;;;3.05;1.15;;;;;;;;;;5048013;28;20030;-78
2021/12/17 08:58:55;;;;;;;3.47;0.95;;;;;;;;;;5031708;28;20060;-78
2021/12/17 09:01:21;;;;;;;5.68;1.30;;;;;;;;;;5046278;28;20063;-78
2021/12/17 09:03:48;;;;;;;3.38;1.08;;;;;;;;;;5047184;28;20072;-77
2021/12/17 09:06:15;;;;;;;6.00;1.17;;;;;;;;;;5040585;28;20635;-77
2021/12/17 09:08:42;;;;;;;3.65;1.10;;;;;;;;;;5049750;28;20433;-78
2021/12/17 09:11:09;;;;;;;3.88;0.90;;;;;;;;;;5048298;28;20080;-78
2021/12/17 09:13:35;;;;;;;4.45;1.20;;;;;;;;;;5054987;28;20060;-77
2021/12/17 09:16:06;;;;;;;5.07;1.05;;;;;;;;;;5055261;28;20056;-78
2021/12/17 09:18:32;;;;;;;4.38;1.30;;;;;;;;;;5030064;28;20512;-77
2021/12/17 09:20:59;;;;;;;3.63;1.02;;;;;;;;;;5050060;28;20052;-78
2021/12/17 09:23:25;;;;;;;5.28;0.90;;;;;;;;;;5047983;28;20065;-77
2021/12/17 09:25:52;;;;;;;3.58;1.30;;;;;;;;;;5030429;28;20088;-77
2021/12/17 09:28:18;;;;;;;4.68;1.27;;;;;;;;;;5043769;28;20048;-77
2021/12/17 09:30:45;;;;;;;5.85;1.40;;;;;;;;;;5049041;28;20068;-77
2021/12/17 09:33:11;;;;;;;4.70;1.13;;;;;;;;;;5044642;28;20079;-77
2021/12/17 09:35:38;;;;;;;2.97;1.27;;;;;;;;;;5040433;28;20521;-77
2021/12/17 09:38:04;;;;;;;5.70;1.30;;;;;;;;;;5050293;28;20098;-77
2021/12/17 09:40:30;;;;;;;5.05;1.40;;;;;;;;;;5044814;28;20056;-78
2021/12/17 09:42:57;;;;;;;3.28;1.02;;;;;;;;;;5046823;28;20060;-78
2021/12/17 09:45:23;;;;;;;2.50;1.00;;;;;;;;;;5042655;28;20125;-77
2021/12/17 09:47:50;;;;;;;7.03;1.30;;;;;;;;;;5050419;28;20497;-78
2021/12/17 09:50:18;;;;;;;4.47;1.00;;;;;;;;;;5045134;28;20447;-77
2021/12/17 09:52:45;;;;;;;2.95;1.10;;;;;;;;;;5049120;28;20449;-78
2021/12/17 09:55:11;;;;;;;3.00;1.20;;;;;;;;;;5047720;28;20056;-77
2021/12/17 09:57:37;;;;;;;4.85;1.33;;;;;;;;;;5055654;28;20066;-78
2021/12/17 10:00:10;;;;;;;3.75;1.17;;;;;;;;;;5036125;28;20068;-77
2021/12/17 10:02:37;;;;;;;4.88;1.13;;;;;;;;;;5049657;28;22329;-78
2021/12/17 10:05:05;;;;;;;3.10;1.10;;;;;;;;;;5047043;28;20060;-77
2021/12/17 10:07:31;;;;;;;8.32;1.75;;;;;;;;;;5047177;28;20045;-78
2021/12/17 10:09:59;;;;;;;4.93;1.40;;;;;;;;;;5049500;28;20056;-78
2021/12/17 10:12:26;;;;;;;5.72;1.20;;;;;;;;;;5039297;28;20056;-78
2021/12/17 10:15:02;;;;;;;3.13;1.05;;;;;;;;;;5046265;28;20539;-78
2021/12/17 10:17:29;;;;;;;3.88;1.00;;;;;;;;;;5033083;28;20072;-78
2021/12/17 10:19:56;;;;;;;1.88;0.90;;;;;;;;;;5047564;28;20492;-78
2021/12/17 10:22:23;;;;;;;3.83;1.10;;;;;;;;;;5047103;28;20065;-79
2021/12/17 10:24:57;;;;;;;3.97;1.20;;;;;;;;;;5046387;28;20064;-77
2021/12/17 10:27:28;;;;;;;3.13;0.93;;;;;;;;;;5045423;28;20566;-78
2021/12/17 10:29:58;;;;;;;3.53;1.20;;;;;;;;;;5042875;28;20142;-78
2021/12/17 10:32:26;;;;;;;3.17;1.00;;;;;;;;;;5048859;28;20052;-80
2021/12/17 10:35:19;;;;;;;4.40;1.20;;;;;;;;;;5035298;28;20114;-79
2021/12/17 10:37:54;;;;;;;4.95;1.20;;;;;;;;;;5026160;28;20364;-80
2021/12/17 10:40:28;;;;;;;5.20;1.23;;;;;;;;;;5044930;28;20072;-81
2021/12/17 10:43:04;;;;;;;5.50;1.27;;;;;;;;;;5046029;28;20058;-81
2021/12/17 10:45:33;;;;;;;4.63;1.23;;;;;;;;;;5048714;28;20061;-81
2021/12/17 10:51:12;;;;;;;3.75;1.20;;;;;;;;;;5009639;28;20537;-81
2021/12/17 10:53:38;;;;;;;3.50;1.13;;;;;;;;;;5041310;28;21259;-80
2021/12/17 10:56:04;;;;;;;1.98;0.80;;;;;;;;;;5045286;28;20184;-81
2021/12/17 10:58:32;;;;;;;4.75;1.00;;;;;;;;;;5049840;28;21875;-81
2021/12/17 11:01:02;;;;;;;3.95;1.42;;;;;;;;;;5054563;28;20082;-82
2021/12/17 11:03:29;;;;;;;3.85;1.33;;;;;;;;;;5049442;28;20072;-81
2021/12/17 11:05:56;;;;;;;2.28;1.00;;;;;;;;;;5059992;28;20064;-81
2021/12/17 11:08:34;;;;;;;3.85;1.10;;;;;;;;;;5048037;28;20057;-81
2021/12/17 11:11:14;;;;;;;2.72;1.00;;;;;;;;;;5047615;28;20064;-80
2021/12/17 11:14:01;;;;;;;2.97;1.10;;;;;;;;;;5043902;28;21172;-79
2021/12/17 11:16:28;;;;;;;1.95;0.88;;;;;;;;;;5050270;28;20449;-81
2021/12/17 11:18:55;;;;;;;4.53;1.27;;;;;;;;;;5050503;28;20067;-82
2021/12/17 11:21:22;;;;;;;3.88;0.93;;;;;;;;;;5051317;28;20033;-80
2021/12/17 11:23:49;;;;;;;2.15;0.82;;;;;;;;;;5051006;28;20076;-80
2021/12/17 11:26:15;;;;;;;3.85;1.00;;;;;;;;;;5049665;28;20064;-81
2021/12/17 11:28:44;;;;;;;2.08;0.68;;;;;;;;;;5050134;28;20053;-83
2021/12/17 11:31:11;;;;;;;3.30;0.90;;;;;;;;;;5047318;28;20052;-82
2021/12/17 11:33:38;;;;;;;3.17;1.02;;;;;;;;;;5028261;28;20029;-82
2021/12/17 11:36:05;;;;;;;2.88;0.90;;;;;;;;;;5030850;28;20032;-80
2021/12/17 11:38:52;;;;;;;1.20;0.50;;;;;;;;;;5032837;28;20068;-80
2021/12/17 11:41:37;;;;;;;1.67;0.95;;;;;;;;;;5053592;28;20122;-80
2021/12/17 11:44:07;;;;;;;2.40;0.77;;;;;;;;;;5053155;28;20059;-81
2021/12/17 11:46:34;;;;;;;1.60;0.80;;;;;;;;;;5051249;28;20166;-80
2021/12/17 11:49:07;;;;;;;3.50;0.80;;;;;;;;;;5057627;28;20068;-79
2021/12/17 11:51:34;;;;;;;2.22;0.70;;;;;;;;;;5044259;28;20126;-80
2021/12/17 11:54:11;;;;;;;2.00;0.75;;;;;;;;;;5043792;28;20028;-80
2021/12/17 11:56:41;;;;;;;4.05;1.27;;;;;;;;;;5052021;28;22278;-79
2021/12/17 11:59:10;;;;;;;2.60;0.90;;;;;;;;;;5047001;28;20201;-79
2021/12/17 12:01:53;;;;;;;4.20;1.17;;;;;;;;;;5046258;28;22754;-80
2021/12/17 12:04:35;;;;;;;2.50;0.90;;;;;;;;;;5045217;28;20122;-79
2021/12/17 12:07:01;;;;;;;;;;;;;;;;;;5046862;28;20065;-81
2021/12/17 12:09:47;;;;;;;2.17;0.70;;;;;;;;;;5050133;28;19936;-79
2021/12/17 12:12:13;;;;;;;3.63;1.23;;;;;;;;;;5046316;28;20061;-79
2021/12/17 12:14:40;;;;;;;1.95;0.65;;;;;;;;;;5047282;28;20499;-80
2021/12/17 12:17:06;;;;;;;4.07;1.00;;;;;;;;;;5046371;28;20083;-80
2021/12/17 12:19:49;;;;;;;2.92;0.80;;;;;;;;;;5050117;28;20134;-80
2021/12/17 12:22:28;;;;;;;2.22;0.93;;;;;;;;;;5045396;28;20619;-79
2021/12/17 12:25:21;;;;;;;3.83;1.00;;;;;;;;;;5055120;28;20501;-80
2021/12/17 12:27:47;;;;;;;4.05;1.10;;;;;;;;;;5042980;28;21333;-80
2021/12/17 12:30:14;;;;;;;2.20;1.17;;;;;;;;;;5046637;28;20025;-79
2021/12/17 12:33:04;;;;;;;2.53;0.95;;;;;;;;;;5047855;28;20063;-79
2021/12/17 12:35:31;;;;;;;2.47;0.90;;;;;;;;;;5043364;28;20056;-79
2021/12/17 12:38:17;;;;;;;2.85;1.15;;;;;;;;;;5047936;28;20076;-79
2021/12/17 12:40:51;;;;;;;2.50;1.15;;;;;;;;;;5046159;28;20909;-80
2021/12/17 12:43:31;;;;;;;4.43;1.00;;;;;;;;;;5045519;28;20057;-78
2021/12/17 12:45:58;;;;;;;1.52;0.88;;;;;;;;;;5050051;28;20499;-80
2021/12/17 12:48:28;;;;;;;2.08;0.93;;;;;;;;;;5028549;28;20048;-79
2021/12/17 12:51:13;;;;;;;1.80;0.90;;;;;;;;;;5050293;28;20061;-81
2021/12/17 12:53:45;;;;;;;3.75;1.13;;;;;;;;;;5048045;28;20036;-79
2021/12/17 12:56:16;;;;;;;3.13;1.30;;;;;;;;;;5048508;28;20110;-79
2021/12/17 12:58:46;;;;;;;5.85;1.15;;;;;;;;;;5049465;28;21573;-80
2021/12/17 13:01:15;;;;;;;2.97;1.10;;;;;;;;;;5049678;28;20068;-79
2021/12/17 13:03:41;;;;;;;3.08;1.10;;;;;;;;;;5054723;28;20024;-80
2021/12/17 13:06:15;;;;;;;3.67;1.15;;;;;;;;;;5048702;28;20061;-79
2021/12/17 13:08:41;;;;;;;3.15;1.23;;;;;;;;;;5049577;28;21098;-80
2021/12/17 13:11:08;;;;;;;2.63;0.80;;;;;;;;;;5051271;28;20060;-80
2021/12/17 13:13:42;;;;;;;2.78;1.00;;;;;;;;;;5052347;28;20040;-81
2021/12/17 13:16:22;;;;;;;2.03;0.90;;;;;;;;;;5049543;28;20064;-79
2021/12/17 13:21:46;;;;;;;2.42;0.90;;;;;;;;;;5049383;28;20098;-79
2021/12/17 13:24:15;;;;;;;3.42;1.20;;;;;;;;;;5047281;28;20060;-77
2021/12/17 13:26:43;;;;;;;3.80;1.02;;;;;;;;;;5049945;28;20057;-79
2021/12/17 13:29:13;;;;;;;1.85;0.93;;;;;;;;;;5050969;28;20072;-79
2021/12/17 13:31:51;;;;;;;3.88;1.20;;;;;;;;;;5048635;28;22322;-79
2021/12/17 13:34:22;;;;;;;3.30;1.20;;;;;;;;;;5054138;28;20044;-78
2021/12/17 13:36:51;;;;;;;3.40;1.10;;;;;;;;;;5049530;28;20501;-80
2021/12/17 13:39:18;;;;;;;1.90;1.00;;;;;;;;;;5048476;28;20072;-78
2021/12/17 13:41:45;;;;;;;4.82;1.20;;;;;;;;;;5050845;28;20060;-80
2021/12/17 13:44:25;;;;;;;2.92;1.20;;;;;;;;;;5030267;28;20049;-80
2021/12/17 13:46:51;;;;;;;2.78;1.05;;;;;;;;;;5048017;28;20033;-78
2021/12/17 13:49:19;;;;;;;2.95;0.90;;;;;;;;;;5047053;28;20163;-78
2021/12/17 13:51:46;;;;;;;2.53;1.00;;;;;;;;;;5037373;28;20107;-80
2021/12/17 13:54:13;;;;;;;2.20;0.93;;;;;;;;;;5058045;28;20059;-79
2021/12/17 13:56:40;;;;;;;1.83;0.80;;;;;;;;;;5044333;28;20022;-79
2021/12/17 13:59:07;;;;;;;3.42;1.00;;;;;;;;;;5042293;28;20074;-78
2021/12/17 14:01:36;;;;;;;2.92;1.08;;;;;;;;;;5047709;28;20056;-79
2021/12/17 14:04:02;;;;;;;3.80;1.05;;;;;;;;;;5029398;28;20114;-80
2021/12/17 14:06:36;;;;;;;3.38;1.17;;;;;;;;;;5047598;28;20029;-77
2021/12/17 14:09:03;;;;;;;2.08;0.85;;;;;;;;;;5037101;28;20081;-77
2021/12/17 14:11:32;;;;;;;2.47;1.10;;;;;;;;;;5038557;28;20069;-78
2021/12/17 14:14:00;;;;;;;3.13;1.23;;;;;;;;;;5048963;28;20477;-78
2021/12/17 14:16:39;;;;;;;2.58;1.17;;;;;;;;;;5047191;28;20123;-77
2021/12/17 14:19:05;;;;;;;3.15;1.10;;;;;;;;;;5053238;28;20127;-78
2021/12/17 14:21:36;;;;;;;4.72;1.63;;;;;;;;;;5052076;28;20170;-76
2021/12/17 14:24:03;;;;;;;3.45;1.33;;;;;;;;;;5058237;28;20056;-77
2021/12/17 14:26:30;;;;;;;2.50;1.00;;;;;;;;;;5053293;28;20057;-77
2021/12/17 14:29:07;;;;;;;2.45;0.90;;;;;;;;;;5052868;28;20598;-77
2021/12/17 14:31:34;;;;;;;2.17;0.93;;;;;;;;;;5023065;28;20447;-77
2021/12/17 14:34:01;;;;;;;3.17;1.02;;;;;;;;;;5050775;28;20092;-77
2021/12/17 14:36:30;;;;;;;2.63;0.90;;;;;;;;;;5012969;28;20449;-78
2021/12/17 14:39:07;;;;;;;5.22;0.98;;;;;;;;;;5049966;28;20110;-78
2021/12/17 14:41:48;;;;;;;2.58;1.05;;;;;;;;;;5048188;28;20157;-77
2021/12/17 14:44:48;;;;;;;4.03;0.85;;;;;;;;;;5047380;28;20055;-78
2021/12/17 14:47:22;;;;;;;2.80;1.05;;;;;;;;;;5043803;28;20060;-77
2021/12/17 15:01:29;;;;;;;1.85;0.90;;;;;;;;;;5052258;28;20800;-77
2021/12/17 15:03:55;;;;;;;2.28;1.05;;;;;;;;;;5025292;28;20037;-77
2021/12/17 15:06:22;;;;;;;1.80;0.75;;;;;;;;;;5050360;28;20148;-77
2021/12/17 15:08:48;;;;;;;1.95;0.98;;;;;;;;;;5047940;28;20060;-77
2021/12/17 15:11:25;;;;;;;1.85;0.88;;;;;;;;;;5037990;28;20053;-77
2021/12/17 15:13:53;;;;;;;1.92;0.90;;;;;;;;;;5047543;28;20072;-78
2021/12/17 15:16:19;;;;;;;2.88;1.00;;;;;;;;;;5048591;28;20682;-78
2021/12/17 15:18:45;;;;;;;1.77;0.70;;;;;;;;;;5047236;28;20060;-79
2021/12/17 15:21:12;;;;;;;2.42;1.00;;;;;;;;;;5049746;28;20063;-79
2021/12/17 15:23:39;;;;;;;2.05;1.00;;;;;;;;;;5046766;28;20103;-77
2021/12/17 15:26:05;;;;;;;2.97;1.05;;;;;;;;;;5046189;28;20044;-78
2021/12/17 15:28:32;;;;;;;2.63;0.85;;;;;;;;;;5025321;28;20104;-77
2021/12/17 15:31:02;;;;;;;1.90;0.88;;;;;;;;;;5048600;28;20064;-80
2021/12/17 15:33:28;;;;;;;0.98;0.60;;;;;;;;;;5048008;28;20037;-78
2021/12/17 15:35:55;;;;;;;1.42;0.75;;;;;;;;;;5030800;28;20037;-78
2021/12/17 15:38:23;;;;;;;1.90;0.80;;;;;;;;;;5038912;28;20630;-79
2021/12/17 15:40:49;;;;;;;1.48;0.77;;;;;;;;;;5047582;28;20123;-78
2021/12/17 15:43:45;;;;;;;2.45;0.70;;;;;;;;;;5025950;28;20823;-79
2021/12/17 15:46:11;;;;;;;2.85;0.90;;;;;;;;;;5039900;28;20053;-79
2021/12/17 15:48:37;;;;;;;2.35;0.88;;;;;;;;;;5043019;28;20359;-81
2021/12/17 15:51:04;;;;;;;1.15;0.77;;;;;;;;;;5046003;28;20503;-79
2021/12/17 15:53:31;;;;;;;2.60;0.90;;;;;;;;;;5045625;28;20098;-78
2021/12/17 15:55:58;;;;;;;3.03;1.00;;;;;;;;;;5046913;28;20476;-79
2021/12/17 15:58:24;;;;;;;1.55;0.75;;;;;;;;;;5048168;28;20068;-79
2021/12/17 16:00:50;;;;;;;2.88;1.00;;;;;;;;;;5045926;28;20079;-79
2021/12/17 16:03:25;;;;;;;3.17;0.85;;;;;;;;;;5047032;28;20091;-79
2021/12/17 16:05:51;;;;;;;2.08;0.90;;;;;;;;;;5047165;28;20033;-79
2021/12/17 16:08:18;;;;;;;2.65;1.00;;;;;;;;;;5046879;28;20045;-81
2021/12/17 16:11:12;;;;;;;1.70;0.80;;;;;;;;;;5046827;28;20520;-79
2021/12/17 16:17:13;;;;;;;1.35;0.80;;;;;;;;;;4994078;28;20058;-78
2021/12/17 16:22:22;;;;;;;1.77;0.98;;;;;;;;;;5049436;28;20037;-77
2021/12/17 16:24:49;;;;;;;1.88;0.90;;;;;;;;;;5048929;28;20126;-76
2021/12/17 16:27:15;;;;;;;1.75;0.90;;;;;;;;;;5019230;28;20057;-76
2021/12/17 16:29:41;;;;;;;1.83;0.70;;;;;;;;;;5047274;28;20579;-77
2021/12/17 16:32:09;;;;;;;1.98;0.80;;;;;;;;;;5056590;28;20090;-76
2021/12/17 16:34:35;;;;;;;3.00;0.82;;;;;;;;;;5050643;28;20119;-77
2021/12/17 16:37:02;;;;;;;1.73;0.90;;;;;;;;;;5049042;28;20069;-77
2021/12/17 16:39:28;;;;;;;3.58;1.08;;;;;;;;;;5038432;28;20068;-77
2021/12/17 16:41:55;;;;;;;1.98;0.82;;;;;;;;;;5052387;28;20044;-76
2021/12/17 16:44:37;;;;;;;2.50;1.00;;;;;;;;;;5049911;28;20065;-76
2021/12/17 16:47:03;;;;;;;2.33;0.90;;;;;;;;;;5053187;28;20074;-76
2021/12/17 16:49:33;;;;;;;1.33;0.70;;;;;;;;;;5045966;28;20057;-78
2021/12/17 16:51:59;;;;;;;1.98;0.80;;;;;;;;;;5039751;28;20029;-75
2021/12/17 16:54:26;;;;;;;2.13;1.02;;;;;;;;;;5049433;28;20057;-77
2021/12/17 16:56:52;;;;;;;1.83;0.90;;;;;;;;;;5051505;28;20508;-76
2021/12/17 16:59:19;;;;;;;2.03;0.90;;;;;;;;;;5052689;28;20075;-76
2021/12/17 17:01:45;;;;;;;0.88;0.60;;;;;;;;;;5033219;28;20060;-76
2021/12/17 17:04:12;;;;;;;1.48;0.80;;;;;;;;;;5049218;28;20065;-76
2021/12/17 17:06:39;;;;;;;1.48;0.82;;;;;;;;;;5032167;28;22145;-76
2021/12/17 17:09:08;;;;;;;4.00;1.00;;;;;;;;;;5056803;28;20040;-76
2021/12/17 17:11:36;;;;;;;2.20;1.00;;;;;;;;;;5059540;28;20024;-76
2021/12/17 17:14:03;;;;;;;2.00;0.93;;;;;;;;;;5061293;28;20105;-76
2021/12/17 17:16:29;;;;;;;1.77;0.60;;;;;;;;;;5054145;28;20037;-76
2021/12/17 17:18:56;;;;;;;2.15;0.85;;;;;;;;;;5060940;28;20208;-76
2021/12/17 17:21:22;;;;;;;1.60;0.90;;;;;;;;;;5062038;28;20036;-78
2021/12/17 17:23:49;;;;;;;1.50;0.88;;;;;;;;;;5053173;28;20069;-77
2021/12/17 17:26:15;;;;;;;2.40;0.73;;;;;;;;;;5050603;28;20056;-77
2021/12/17 17:28:43;;;;;;;1.45;0.70;;;;;;;;;;5053219;28;20159;-76
2021/12/17 17:31:10;;;;;;;1.52;0.80;;;;;;;;;;5051186;28;20061;-77
2021/12/17 17:33:45;;;;;;;1.33;0.75;;;;;;;;;;5048385;28;20057;-77
2021/12/17 17:36:11;;;;;;;2.13;0.65;;;;;;;;;;5052582;28;20053;-77
2021/12/17 17:38:38;;;;;;;3.65;1.00;;;;;;;;;;5047538;28;22245;-77
2021/12/17 17:41:04;;;;;;;2.10;1.00;;;;;;;;;;5059430;28;20036;-76
2021/12/17 17:43:31;;;;;;;0.98;0.57;;;;;;;;;;5047346;28;20095;-76
2021/12/17 17:45:57;;;;;;;1.33;0.70;;;;;;;;;;5050455;28;20730;-76
2021/12/17 17:48:23;;;;;;;1.35;0.70;;;;;;;;;;5047917;28;20147;-77
2021/12/17 17:50:50;;;;;;;0.73;0.50;;;;;;;;;;5050530;28;20072;-76
2021/12/17 17:53:16;;;;;;;1.25;0.60;;;;;;;;;;5038726;28;20058;-77
2021/12/17 17:55:43;;;;;;;1.55;0.80;;;;;;;;;;5044535;28;20068;-76
2021/12/17 17:58:10;;;;;;;1.67;0.70;;;;;;;;;;5051193;28;20059;-76
2021/12/17 18:00:36;;;;;;;1.77;0.60;;;;;;;;;;5046312;28;20143;-76
2021/12/17 18:03:03;;;;;;;0.82;0.43;;;;;;;;;;5054602;28;20067;-77